sensor_id;sensor_type;location;lat;lon;timestamp;P1;durP1;ratioP1;P2;durP2;ratioP2
16878;SDS011;8556;52.218;9.884;2023-03-20T00:00:20;10.77;;;6.97;;
16878;SDS011;8556;52.218;9.884;2023-03-20T00:02:54;10.00;;;7.00;;
16878;SDS011;8556;52.218;9.884;2023-03-20T00:05:21;13.03;;;7.47;;
16878;SDS011;8556;52.218;9.884;2023-03-20T00:07:49;13.33;;;7.53;;
16878;SDS011;8556;52.218;9.884;2023-03-20T00:10:17;11.80;;;7.87;;
16878;SDS011;8556;52.218;9.884;2023-03-20T00:12:45;11.70;;;7.07;;
16878;SDS011;8556;52.218;9.884;2023-03-20T00:15:20;18.33;;;10.63;;
16878;SDS011;8556;52.218;9.884;2023-03-20T00:17:50;19.10;;;11.33;;
16878;SDS011;8556;52.218;9.884;2023-03-20T00:20:19;23.13;;;14.00;;
16878;SDS011;8556;52.218;9.884;2023-03-20T00:22:46;24.27;;;15.63;;
16878;SDS011;8556;52.218;9.884;2023-03-20T00:25:13;29.57;;;18.30;;
16878;SDS011;8556;52.218;9.884;2023-03-20T00:27:41;27.33;;;16.47;;
16878;SDS011;8556;52.218;9.884;2023-03-20T00:30:15;31.40;;;18.63;;
16878;SDS011;8556;52.218;9.884;2023-03-20T00:32:47;34.70;;;20.33;;
16878;SDS011;8556;52.218;9.884;2023-03-20T00:35:20;29.77;;;17.83;;
16878;SDS011;8556;52.218;9.884;2023-03-20T00:37:50;31.60;;;18.43;;
16878;SDS011;8556;52.218;9.884;2023-03-20T00:40:17;35.73;;;19.53;;
16878;SDS011;8556;52.218;9.884;2023-03-20T00:42:45;33.03;;;18.80;;
16878;SDS011;8556;52.218;9.884;2023-03-20T00:45:16;33.17;;;18.33;;
16878;SDS011;8556;52.218;9.884;2023-03-20T00:47:46;32.80;;;18.23;;
16878;SDS011;8556;52.218;9.884;2023-03-20T00:50:16;31.93;;;18.20;;
16878;SDS011;8556;52.218;9.884;2023-03-20T00:52:46;35.07;;;19.30;;
16878;SDS011;8556;52.218;9.884;2023-03-20T00:55:14;36.43;;;19.20;;
16878;SDS011;8556;52.218;9.884;2023-03-20T00:57:42;38.23;;;19.17;;
16878;SDS011;8556;52.218;9.884;2023-03-20T01:00:22;37.83;;;19.03;;
16878;SDS011;8556;52.218;9.884;2023-03-20T01:02:52;38.13;;;19.87;;
16878;SDS011;8556;52.218;9.884;2023-03-20T01:05:24;32.87;;;18.87;;
16878;SDS011;8556;52.218;9.884;2023-03-20T01:07:52;34.47;;;18.40;;
16878;SDS011;8556;52.218;9.884;2023-03-20T01:10:19;38.33;;;19.00;;
16878;SDS011;8556;52.218;9.884;2023-03-20T01:12:47;37.10;;;19.17;;
16878;SDS011;8556;52.218;9.884;2023-03-20T01:15:16;33.90;;;18.17;;
16878;SDS011;8556;52.218;9.884;2023-03-20T01:17:45;33.47;;;17.33;;
16878;SDS011;8556;52.218;9.884;2023-03-20T01:20:19;34.60;;;18.53;;
16878;SDS011;8556;52.218;9.884;2023-03-20T01:22:48;35.67;;;19.13;;
16878;SDS011;8556;52.218;9.884;2023-03-20T01:25:16;35.90;;;18.63;;
16878;SDS011;8556;52.218;9.884;2023-03-20T01:27:44;36.03;;;18.27;;
16878;SDS011;8556;52.218;9.884;2023-03-20T01:30:15;35.37;;;17.43;;
16878;SDS011;8556;52.218;9.884;2023-03-20T01:32:44;34.37;;;17.57;;
16878;SDS011;8556;52.218;9.884;2023-03-20T01:35:13;34.23;;;17.73;;
16878;SDS011;8556;52.218;9.884;2023-03-20T01:37:41;33.83;;;17.40;;
16878;SDS011;8556;52.218;9.884;2023-03-20T01:40:12;35.70;;;18.23;;
16878;SDS011;8556;52.218;9.884;2023-03-20T01:42:56;33.70;;;18.03;;
16878;SDS011;8556;52.218;9.884;2023-03-20T01:45:25;35.93;;;18.33;;
16878;SDS011;8556;52.218;9.884;2023-03-20T01:47:55;35.53;;;18.63;;
16878;SDS011;8556;52.218;9.884;2023-03-20T01:50:27;36.27;;;18.57;;
16878;SDS011;8556;52.218;9.884;2023-03-20T01:53:00;35.93;;;18.47;;
16878;SDS011;8556;52.218;9.884;2023-03-20T01:55:35;36.43;;;18.37;;
16878;SDS011;8556;52.218;9.884;2023-03-20T01:58:04;36.00;;;17.67;;
16878;SDS011;8556;52.218;9.884;2023-03-20T02:00:34;37.20;;;18.93;;
16878;SDS011;8556;52.218;9.884;2023-03-20T02:03:02;35.40;;;17.53;;
16878;SDS011;8556;52.218;9.884;2023-03-20T02:05:31;37.50;;;17.07;;
16878;SDS011;8556;52.218;9.884;2023-03-20T02:08:01;36.37;;;17.63;;
16878;SDS011;8556;52.218;9.884;2023-03-20T02:10:38;37.40;;;17.43;;
16878;SDS011;8556;52.218;9.884;2023-03-20T02:13:05;35.93;;;18.97;;
16878;SDS011;8556;52.218;9.884;2023-03-20T02:15:33;35.90;;;18.23;;
16878;SDS011;8556;52.218;9.884;2023-03-20T02:18:01;39.73;;;19.40;;
16878;SDS011;8556;52.218;9.884;2023-03-20T02:20:30;39.87;;;18.47;;
16878;SDS011;8556;52.218;9.884;2023-03-20T02:26:13;41.47;;;18.57;;
16878;SDS011;8556;52.218;9.884;2023-03-20T02:32:22;37.50;;;17.73;;
16878;SDS011;8556;52.218;9.884;2023-03-20T02:38:31;39.77;;;18.37;;
16878;SDS011;8556;52.218;9.884;2023-03-20T02:41:26;41.93;;;19.10;;
16878;SDS011;8556;52.218;9.884;2023-03-20T02:43:59;37.90;;;17.37;;
16878;SDS011;8556;52.218;9.884;2023-03-20T02:46:33;38.20;;;18.30;;
16878;SDS011;8556;52.218;9.884;2023-03-20T02:49:09;34.30;;;15.57;;
16878;SDS011;8556;52.218;9.884;2023-03-20T02:51:47;34.27;;;15.00;;
16878;SDS011;8556;52.218;9.884;2023-03-20T02:54:23;32.07;;;15.03;;
16878;SDS011;8556;52.218;9.884;2023-03-20T02:56:58;29.53;;;14.53;;
16878;SDS011;8556;52.218;9.884;2023-03-20T02:59:31;30.87;;;14.77;;
16878;SDS011;8556;52.218;9.884;2023-03-20T03:02:06;30.20;;;13.80;;
16878;SDS011;8556;52.218;9.884;2023-03-20T03:04:35;28.67;;;12.90;;
16878;SDS011;8556;52.218;9.884;2023-03-20T03:07:06;31.57;;;14.47;;
16878;SDS011;8556;52.218;9.884;2023-03-20T03:09:39;29.47;;;12.97;;
16878;SDS011;8556;52.218;9.884;2023-03-20T03:12:09;27.67;;;11.93;;
16878;SDS011;8556;52.218;9.884;2023-03-20T03:14:41;27.13;;;12.37;;
16878;SDS011;8556;52.218;9.884;2023-03-20T03:17:11;27.43;;;12.40;;
16878;SDS011;8556;52.218;9.884;2023-03-20T03:19:40;28.10;;;12.80;;
16878;SDS011;8556;52.218;9.884;2023-03-20T03:22:12;28.37;;;13.20;;
16878;SDS011;8556;52.218;9.884;2023-03-20T03:24:43;28.07;;;11.43;;
16878;SDS011;8556;52.218;9.884;2023-03-20T03:27:12;29.50;;;12.57;;
16878;SDS011;8556;52.218;9.884;2023-03-20T03:29:43;30.13;;;12.07;;
16878;SDS011;8556;52.218;9.884;2023-03-20T03:32:28;26.53;;;11.30;;
16878;SDS011;8556;52.218;9.884;2023-03-20T03:34:58;30.47;;;13.70;;
16878;SDS011;8556;52.218;9.884;2023-03-20T03:37:38;30.77;;;13.03;;
16878;SDS011;8556;52.218;9.884;2023-03-20T03:40:14;24.70;;;11.87;;
16878;SDS011;8556;52.218;9.884;2023-03-20T03:42:49;31.87;;;12.00;;
16878;SDS011;8556;52.218;9.884;2023-03-20T03:45:22;23.97;;;11.50;;
16878;SDS011;8556;52.218;9.884;2023-03-20T03:47:57;27.30;;;11.70;;
16878;SDS011;8556;52.218;9.884;2023-03-20T03:50:27;26.03;;;11.70;;
16878;SDS011;8556;52.218;9.884;2023-03-20T03:52:58;25.33;;;11.17;;
16878;SDS011;8556;52.218;9.884;2023-03-20T03:55:31;28.60;;;11.90;;
16878;SDS011;8556;52.218;9.884;2023-03-20T03:58:03;28.90;;;12.67;;
16878;SDS011;8556;52.218;9.884;2023-03-20T04:00:34;23.60;;;10.73;;
16878;SDS011;8556;52.218;9.884;2023-03-20T04:03:02;26.77;;;11.67;;
16878;SDS011;8556;52.218;9.884;2023-03-20T04:05:32;25.43;;;10.53;;
16878;SDS011;8556;52.218;9.884;2023-03-20T04:08:02;27.67;;;11.90;;
16878;SDS011;8556;52.218;9.884;2023-03-20T04:10:32;26.87;;;11.27;;
16878;SDS011;8556;52.218;9.884;2023-03-20T04:13:00;25.67;;;10.80;;
16878;SDS011;8556;52.218;9.884;2023-03-20T04:15:26;26.27;;;11.33;;
16878;SDS011;8556;52.218;9.884;2023-03-20T04:17:53;29.07;;;12.57;;
16878;SDS011;8556;52.218;9.884;2023-03-20T04:20:20;27.03;;;12.83;;
16878;SDS011;8556;52.218;9.884;2023-03-20T04:22:47;27.20;;;12.40;;
16878;SDS011;8556;52.218;9.884;2023-03-20T04:25:15;26.67;;;12.43;;
16878;SDS011;8556;52.218;9.884;2023-03-20T04:27:44;29.20;;;13.87;;
16878;SDS011;8556;52.218;9.884;2023-03-20T04:30:11;30.90;;;14.27;;
16878;SDS011;8556;52.218;9.884;2023-03-20T04:32:38;29.73;;;13.13;;
16878;SDS011;8556;52.218;9.884;2023-03-20T04:35:06;30.57;;;13.87;;
16878;SDS011;8556;52.218;9.884;2023-03-20T04:37:33;31.03;;;13.43;;
16878;SDS011;8556;52.218;9.884;2023-03-20T04:40:00;31.53;;;13.63;;
16878;SDS011;8556;52.218;9.884;2023-03-20T04:42:28;29.43;;;13.00;;
16878;SDS011;8556;52.218;9.884;2023-03-20T04:44:56;29.57;;;13.10;;
16878;SDS011;8556;52.218;9.884;2023-03-20T04:47:23;28.97;;;12.70;;
16878;SDS011;8556;52.218;9.884;2023-03-20T04:49:50;28.83;;;12.30;;
16878;SDS011;8556;52.218;9.884;2023-03-20T04:52:16;26.80;;;12.30;;
16878;SDS011;8556;52.218;9.884;2023-03-20T04:54:43;28.27;;;13.60;;
16878;SDS011;8556;52.218;9.884;2023-03-20T04:57:10;34.43;;;13.93;;
16878;SDS011;8556;52.218;9.884;2023-03-20T04:59:37;29.00;;;13.07;;
16878;SDS011;8556;52.218;9.884;2023-03-20T05:02:05;29.17;;;12.57;;
16878;SDS011;8556;52.218;9.884;2023-03-20T05:04:32;29.40;;;13.70;;
16878;SDS011;8556;52.218;9.884;2023-03-20T05:06:58;31.77;;;13.67;;
16878;SDS011;8556;52.218;9.884;2023-03-20T05:09:25;27.60;;;12.87;;
16878;SDS011;8556;52.218;9.884;2023-03-20T05:11:52;29.10;;;13.37;;
16878;SDS011;8556;52.218;9.884;2023-03-20T05:14:19;31.53;;;13.43;;
16878;SDS011;8556;52.218;9.884;2023-03-20T05:16:46;33.40;;;14.13;;
16878;SDS011;8556;52.218;9.884;2023-03-20T05:19:15;31.67;;;14.17;;
16878;SDS011;8556;52.218;9.884;2023-03-20T05:21:42;31.83;;;13.90;;
16878;SDS011;8556;52.218;9.884;2023-03-20T05:24:08;30.93;;;13.63;;
16878;SDS011;8556;52.218;9.884;2023-03-20T05:26:35;33.50;;;13.23;;
16878;SDS011;8556;52.218;9.884;2023-03-20T05:29:02;31.97;;;13.63;;
16878;SDS011;8556;52.218;9.884;2023-03-20T05:31:29;29.57;;;13.70;;
16878;SDS011;8556;52.218;9.884;2023-03-20T05:33:56;30.63;;;13.33;;
16878;SDS011;8556;52.218;9.884;2023-03-20T05:36:24;30.87;;;13.03;;
16878;SDS011;8556;52.218;9.884;2023-03-20T05:38:51;28.77;;;12.87;;
16878;SDS011;8556;52.218;9.884;2023-03-20T05:41:17;31.43;;;13.77;;
16878;SDS011;8556;52.218;9.884;2023-03-20T05:43:44;34.37;;;14.53;;
16878;SDS011;8556;52.218;9.884;2023-03-20T05:46:11;29.50;;;13.17;;
16878;SDS011;8556;52.218;9.884;2023-03-20T05:48:38;30.63;;;14.00;;
16878;SDS011;8556;52.218;9.884;2023-03-20T05:51:05;35.10;;;14.63;;
16878;SDS011;8556;52.218;9.884;2023-03-20T05:53:33;34.20;;;14.37;;
16878;SDS011;8556;52.218;9.884;2023-03-20T05:56:00;30.80;;;13.33;;
16878;SDS011;8556;52.218;9.884;2023-03-20T05:58:27;29.70;;;13.27;;
16878;SDS011;8556;52.218;9.884;2023-03-20T06:00:55;27.80;;;12.70;;
16878;SDS011;8556;52.218;9.884;2023-03-20T06:03:22;34.77;;;14.20;;
16878;SDS011;8556;52.218;9.884;2023-03-20T06:05:49;30.17;;;14.50;;
16878;SDS011;8556;52.218;9.884;2023-03-20T06:08:16;32.27;;;13.80;;
16878;SDS011;8556;52.218;9.884;2023-03-20T06:10:44;31.67;;;12.73;;
16878;SDS011;8556;52.218;9.884;2023-03-20T06:13:11;30.60;;;13.17;;
16878;SDS011;8556;52.218;9.884;2023-03-20T06:15:37;34.57;;;14.13;;
16878;SDS011;8556;52.218;9.884;2023-03-20T06:18:04;33.53;;;14.00;;
16878;SDS011;8556;52.218;9.884;2023-03-20T06:20:31;36.57;;;14.70;;
16878;SDS011;8556;52.218;9.884;2023-03-20T06:22:58;34.37;;;15.17;;
16878;SDS011;8556;52.218;9.884;2023-03-20T06:25:26;31.97;;;13.87;;
16878;SDS011;8556;52.218;9.884;2023-03-20T06:27:54;33.37;;;14.53;;
16878;SDS011;8556;52.218;9.884;2023-03-20T06:30:21;35.37;;;14.47;;
16878;SDS011;8556;52.218;9.884;2023-03-20T06:32:48;35.87;;;14.77;;
16878;SDS011;8556;52.218;9.884;2023-03-20T06:35:15;32.13;;;13.53;;
16878;SDS011;8556;52.218;9.884;2023-03-20T06:37:42;35.37;;;14.33;;
16878;SDS011;8556;52.218;9.884;2023-03-20T06:40:09;35.67;;;14.77;;
16878;SDS011;8556;52.218;9.884;2023-03-20T06:42:36;33.20;;;14.67;;
16878;SDS011;8556;52.218;9.884;2023-03-20T06:45:05;36.17;;;15.17;;
16878;SDS011;8556;52.218;9.884;2023-03-20T06:47:33;35.43;;;14.90;;
16878;SDS011;8556;52.218;9.884;2023-03-20T06:49:59;39.80;;;17.67;;
16878;SDS011;8556;52.218;9.884;2023-03-20T06:52:26;34.53;;;14.70;;
16878;SDS011;8556;52.218;9.884;2023-03-20T06:54:53;37.57;;;15.87;;
16878;SDS011;8556;52.218;9.884;2023-03-20T06:57:20;38.10;;;16.33;;
16878;SDS011;8556;52.218;9.884;2023-03-20T06:59:47;31.27;;;14.20;;
16878;SDS011;8556;52.218;9.884;2023-03-20T07:02:15;33.50;;;15.07;;
16878;SDS011;8556;52.218;9.884;2023-03-20T07:04:42;37.27;;;15.47;;
16878;SDS011;8556;52.218;9.884;2023-03-20T07:07:09;39.27;;;15.43;;
16878;SDS011;8556;52.218;9.884;2023-03-20T07:09:35;37.07;;;15.60;;
16878;SDS011;8556;52.218;9.884;2023-03-20T07:12:02;32.67;;;13.73;;
16878;SDS011;8556;52.218;9.884;2023-03-20T07:14:29;37.70;;;18.27;;
16878;SDS011;8556;52.218;9.884;2023-03-20T07:16:56;38.13;;;17.17;;
16878;SDS011;8556;52.218;9.884;2023-03-20T07:19:24;35.67;;;15.93;;
16878;SDS011;8556;52.218;9.884;2023-03-20T07:21:52;38.63;;;15.60;;
16878;SDS011;8556;52.218;9.884;2023-03-20T07:24:25;38.23;;;15.53;;
16878;SDS011;8556;52.218;9.884;2023-03-20T07:26:52;32.27;;;15.13;;
16878;SDS011;8556;52.218;9.884;2023-03-20T07:29:19;32.60;;;14.77;;
16878;SDS011;8556;52.218;9.884;2023-03-20T07:31:46;33.30;;;14.50;;
16878;SDS011;8556;52.218;9.884;2023-03-20T07:34:12;32.37;;;14.87;;
16878;SDS011;8556;52.218;9.884;2023-03-20T07:36:41;34.40;;;15.17;;
16878;SDS011;8556;52.218;9.884;2023-03-20T07:39:08;30.93;;;14.83;;
16878;SDS011;8556;52.218;9.884;2023-03-20T07:41:36;33.77;;;14.20;;
16878;SDS011;8556;52.218;9.884;2023-03-20T07:44:03;32.33;;;14.57;;
16878;SDS011;8556;52.218;9.884;2023-03-20T07:46:31;28.67;;;13.83;;
16878;SDS011;8556;52.218;9.884;2023-03-20T07:48:58;33.40;;;15.20;;
16878;SDS011;8556;52.218;9.884;2023-03-20T07:51:25;31.27;;;13.83;;
16878;SDS011;8556;52.218;9.884;2023-03-20T07:53:53;30.57;;;13.60;;
16878;SDS011;8556;52.218;9.884;2023-03-20T07:56:20;30.70;;;13.77;;
16878;SDS011;8556;52.218;9.884;2023-03-20T07:58:47;29.80;;;14.17;;
16878;SDS011;8556;52.218;9.884;2023-03-20T08:01:13;29.83;;;14.10;;
16878;SDS011;8556;52.218;9.884;2023-03-20T08:03:40;32.40;;;14.73;;
16878;SDS011;8556;52.218;9.884;2023-03-20T08:06:08;27.03;;;13.50;;
16878;SDS011;8556;52.218;9.884;2023-03-20T08:08:35;30.00;;;14.20;;
16878;SDS011;8556;52.218;9.884;2023-03-20T08:11:03;30.90;;;15.07;;
16878;SDS011;8556;52.218;9.884;2023-03-20T08:13:31;32.23;;;14.80;;
16878;SDS011;8556;52.218;9.884;2023-03-20T08:15:57;30.13;;;14.33;;
16878;SDS011;8556;52.218;9.884;2023-03-20T08:18:24;32.53;;;15.40;;
16878;SDS011;8556;52.218;9.884;2023-03-20T08:20:51;33.67;;;15.53;;
16878;SDS011;8556;52.218;9.884;2023-03-20T08:23:18;29.73;;;15.07;;
16878;SDS011;8556;52.218;9.884;2023-03-20T08:25:46;30.80;;;15.10;;
16878;SDS011;8556;52.218;9.884;2023-03-20T08:28:15;28.73;;;13.50;;
16878;SDS011;8556;52.218;9.884;2023-03-20T08:30:42;28.87;;;14.07;;
16878;SDS011;8556;52.218;9.884;2023-03-20T08:33:09;29.63;;;13.70;;
16878;SDS011;8556;52.218;9.884;2023-03-20T08:35:36;30.77;;;13.93;;
16878;SDS011;8556;52.218;9.884;2023-03-20T08:38:03;27.83;;;13.27;;
16878;SDS011;8556;52.218;9.884;2023-03-20T08:40:30;28.03;;;13.70;;
16878;SDS011;8556;52.218;9.884;2023-03-20T08:42:56;29.33;;;13.57;;
16878;SDS011;8556;52.218;9.884;2023-03-20T08:45:25;25.40;;;13.03;;
16878;SDS011;8556;52.218;9.884;2023-03-20T08:47:51;28.10;;;13.70;;
16878;SDS011;8556;52.218;9.884;2023-03-20T08:50:18;29.47;;;13.53;;
16878;SDS011;8556;52.218;9.884;2023-03-20T08:52:45;27.40;;;12.87;;
16878;SDS011;8556;52.218;9.884;2023-03-20T08:55:13;26.20;;;12.53;;
16878;SDS011;8556;52.218;9.884;2023-03-20T08:57:40;26.87;;;12.00;;
16878;SDS011;8556;52.218;9.884;2023-03-20T09:00:08;23.83;;;11.10;;
16878;SDS011;8556;52.218;9.884;2023-03-20T09:02:39;24.10;;;11.43;;
16878;SDS011;8556;52.218;9.884;2023-03-20T09:05:06;22.57;;;10.80;;
16878;SDS011;8556;52.218;9.884;2023-03-20T09:07:34;21.13;;;10.03;;
16878;SDS011;8556;52.218;9.884;2023-03-20T09:10:01;22.23;;;10.23;;
16878;SDS011;8556;52.218;9.884;2023-03-20T09:12:28;20.73;;;9.97;;
16878;SDS011;8556;52.218;9.884;2023-03-20T09:14:56;18.97;;;9.33;;
16878;SDS011;8556;52.218;9.884;2023-03-20T09:17:24;19.93;;;9.27;;
16878;SDS011;8556;52.218;9.884;2023-03-20T09:19:52;20.80;;;10.67;;
16878;SDS011;8556;52.218;9.884;2023-03-20T09:22:19;23.30;;;10.40;;
16878;SDS011;8556;52.218;9.884;2023-03-20T09:24:46;24.63;;;11.60;;
16878;SDS011;8556;52.218;9.884;2023-03-20T09:27:12;23.60;;;11.27;;
16878;SDS011;8556;52.218;9.884;2023-03-20T09:29:39;23.30;;;11.23;;
16878;SDS011;8556;52.218;9.884;2023-03-20T09:32:06;24.70;;;12.03;;
16878;SDS011;8556;52.218;9.884;2023-03-20T09:34:35;22.57;;;11.30;;
16878;SDS011;8556;52.218;9.884;2023-03-20T09:37:03;23.73;;;11.63;;
16878;SDS011;8556;52.218;9.884;2023-03-20T09:39:30;24.70;;;11.83;;
16878;SDS011;8556;52.218;9.884;2023-03-20T09:41:58;23.80;;;12.27;;
16878;SDS011;8556;52.218;9.884;2023-03-20T09:44:34;26.10;;;12.27;;
16878;SDS011;8556;52.218;9.884;2023-03-20T09:47:11;24.57;;;12.60;;
16878;SDS011;8556;52.218;9.884;2023-03-20T09:49:44;26.40;;;12.23;;
16878;SDS011;8556;52.218;9.884;2023-03-20T09:52:23;26.63;;;12.67;;
16878;SDS011;8556;52.218;9.884;2023-03-20T09:54:54;27.00;;;13.53;;
16878;SDS011;8556;52.218;9.884;2023-03-20T09:57:25;30.70;;;14.83;;
16878;SDS011;8556;52.218;9.884;2023-03-20T09:59:54;29.20;;;14.27;;
16878;SDS011;8556;52.218;9.884;2023-03-20T10:02:25;32.60;;;16.03;;
16878;SDS011;8556;52.218;9.884;2023-03-20T10:05:00;29.10;;;15.87;;
16878;SDS011;8556;52.218;9.884;2023-03-20T10:07:31;33.00;;;15.30;;
16878;SDS011;8556;52.218;9.884;2023-03-20T10:09:58;35.97;;;18.33;;
16878;SDS011;8556;52.218;9.884;2023-03-20T10:12:31;38.23;;;19.37;;
16878;SDS011;8556;52.218;9.884;2023-03-20T10:15:14;39.53;;;19.93;;
16878;SDS011;8556;52.218;9.884;2023-03-20T10:17:47;38.30;;;19.37;;
16878;SDS011;8556;52.218;9.884;2023-03-20T10:20:21;39.80;;;21.53;;
16878;SDS011;8556;52.218;9.884;2023-03-20T10:22:57;34.33;;;18.80;;
16878;SDS011;8556;52.218;9.884;2023-03-20T10:25:30;34.13;;;18.77;;
16878;SDS011;8556;52.218;9.884;2023-03-20T10:27:58;32.50;;;17.67;;
16878;SDS011;8556;52.218;9.884;2023-03-20T10:30:31;31.63;;;19.03;;
16878;SDS011;8556;52.218;9.884;2023-03-20T10:33:21;31.20;;;17.90;;
16878;SDS011;8556;52.218;9.884;2023-03-20T10:35:59;29.87;;;17.07;;
16878;SDS011;8556;52.218;9.884;2023-03-20T10:38:38;29.40;;;16.50;;
16878;SDS011;8556;52.218;9.884;2023-03-20T10:41:11;27.63;;;16.83;;
16878;SDS011;8556;52.218;9.884;2023-03-20T10:43:41;27.77;;;15.53;;
16878;SDS011;8556;52.218;9.884;2023-03-20T10:46:11;25.73;;;16.00;;
16878;SDS011;8556;52.218;9.884;2023-03-20T10:48:41;26.20;;;16.20;;
16878;SDS011;8556;52.218;9.884;2023-03-20T10:51:12;26.43;;;15.57;;
16878;SDS011;8556;52.218;9.884;2023-03-20T10:53:44;25.27;;;15.50;;
16878;SDS011;8556;52.218;9.884;2023-03-20T10:56:14;26.37;;;15.37;;
16878;SDS011;8556;52.218;9.884;2023-03-20T10:58:47;27.03;;;15.63;;
16878;SDS011;8556;52.218;9.884;2023-03-20T11:01:23;28.23;;;15.77;;
16878;SDS011;8556;52.218;9.884;2023-03-20T11:03:50;24.97;;;15.80;;
16878;SDS011;8556;52.218;9.884;2023-03-20T11:06:17;23.90;;;14.60;;
16878;SDS011;8556;52.218;9.884;2023-03-20T11:08:49;25.63;;;15.43;;
16878;SDS011;8556;52.218;9.884;2023-03-20T11:11:21;23.60;;;15.17;;
16878;SDS011;8556;52.218;9.884;2023-03-20T11:13:49;21.53;;;14.03;;
16878;SDS011;8556;52.218;9.884;2023-03-20T11:16:17;24.40;;;15.13;;
16878;SDS011;8556;52.218;9.884;2023-03-20T11:18:46;21.27;;;14.17;;
16878;SDS011;8556;52.218;9.884;2023-03-20T11:21:15;20.00;;;13.73;;
16878;SDS011;8556;52.218;9.884;2023-03-20T11:23:45;19.13;;;12.90;;
16878;SDS011;8556;52.218;9.884;2023-03-20T11:26:13;18.43;;;12.57;;
16878;SDS011;8556;52.218;9.884;2023-03-20T11:28:46;18.87;;;12.50;;
16878;SDS011;8556;52.218;9.884;2023-03-20T11:31:16;20.63;;;12.93;;
16878;SDS011;8556;52.218;9.884;2023-03-20T11:33:45;18.03;;;12.50;;
16878;SDS011;8556;52.218;9.884;2023-03-20T11:36:20;19.13;;;13.17;;
16878;SDS011;8556;52.218;9.884;2023-03-20T11:38:48;19.10;;;12.00;;
16878;SDS011;8556;52.218;9.884;2023-03-20T11:41:18;17.47;;;12.00;;
16878;SDS011;8556;52.218;9.884;2023-03-20T11:43:48;18.17;;;11.60;;
16878;SDS011;8556;52.218;9.884;2023-03-20T11:46:15;17.77;;;11.77;;
16878;SDS011;8556;52.218;9.884;2023-03-20T11:48:45;18.23;;;12.77;;
16878;SDS011;8556;52.218;9.884;2023-03-20T11:51:13;17.40;;;12.80;;
16878;SDS011;8556;52.218;9.884;2023-03-20T11:53:50;18.43;;;12.63;;
16878;SDS011;8556;52.218;9.884;2023-03-20T11:56:25;20.77;;;12.70;;
16878;SDS011;8556;52.218;9.884;2023-03-20T11:58:54;19.47;;;13.57;;
16878;SDS011;8556;52.218;9.884;2023-03-20T12:01:23;18.63;;;12.90;;
16878;SDS011;8556;52.218;9.884;2023-03-20T12:03:51;19.17;;;13.80;;
16878;SDS011;8556;52.218;9.884;2023-03-20T12:06:25;18.73;;;12.93;;
16878;SDS011;8556;52.218;9.884;2023-03-20T12:09:03;17.40;;;12.73;;
16878;SDS011;8556;52.218;9.884;2023-03-20T12:11:41;20.63;;;14.00;;
16878;SDS011;8556;52.218;9.884;2023-03-20T12:14:17;18.63;;;12.93;;
16878;SDS011;8556;52.218;9.884;2023-03-20T12:16:49;17.60;;;11.83;;
16878;SDS011;8556;52.218;9.884;2023-03-20T12:19:21;17.83;;;12.23;;
16878;SDS011;8556;52.218;9.884;2023-03-20T12:21:55;16.60;;;12.03;;
16878;SDS011;8556;52.218;9.884;2023-03-20T12:24:30;18.73;;;13.13;;
16878;SDS011;8556;52.218;9.884;2023-03-20T12:27:12;19.40;;;12.90;;
16878;SDS011;8556;52.218;9.884;2023-03-20T12:29:46;19.67;;;13.17;;
16878;SDS011;8556;52.218;9.884;2023-03-20T12:32:19;18.87;;;13.23;;
16878;SDS011;8556;52.218;9.884;2023-03-20T12:34:50;19.93;;;14.30;;
16878;SDS011;8556;52.218;9.884;2023-03-20T12:37:20;20.23;;;14.03;;
16878;SDS011;8556;52.218;9.884;2023-03-20T12:39:48;22.03;;;14.87;;
16878;SDS011;8556;52.218;9.884;2023-03-20T12:42:21;20.30;;;14.90;;
16878;SDS011;8556;52.218;9.884;2023-03-20T12:44:58;19.83;;;13.90;;
16878;SDS011;8556;52.218;9.884;2023-03-20T12:47:38;18.37;;;13.10;;
16878;SDS011;8556;52.218;9.884;2023-03-20T12:50:16;19.47;;;13.00;;
16878;SDS011;8556;52.218;9.884;2023-03-20T12:52:53;17.10;;;13.10;;
16878;SDS011;8556;52.218;9.884;2023-03-20T12:55:30;17.20;;;13.60;;
16878;SDS011;8556;52.218;9.884;2023-03-20T12:58:09;19.63;;;12.93;;
16878;SDS011;8556;52.218;9.884;2023-03-20T13:00:45;17.53;;;12.93;;
16878;SDS011;8556;52.218;9.884;2023-03-20T13:03:23;18.00;;;13.40;;
16878;SDS011;8556;52.218;9.884;2023-03-20T13:06:01;19.37;;;14.33;;
16878;SDS011;8556;52.218;9.884;2023-03-20T13:11:30;16.83;;;13.03;;
16878;SDS011;8556;52.218;9.884;2023-03-20T13:14:05;18.63;;;13.50;;
16878;SDS011;8556;52.218;9.884;2023-03-20T13:16:41;16.47;;;12.40;;
16878;SDS011;8556;52.218;9.884;2023-03-20T13:19:16;16.30;;;11.67;;
16878;SDS011;8556;52.218;9.884;2023-03-20T13:21:52;13.97;;;10.93;;
16878;SDS011;8556;52.218;9.884;2023-03-20T13:24:29;14.47;;;11.20;;
16878;SDS011;8556;52.218;9.884;2023-03-20T13:27:05;16.63;;;11.43;;
16878;SDS011;8556;52.218;9.884;2023-03-20T13:29:44;15.13;;;11.43;;
16878;SDS011;8556;52.218;9.884;2023-03-20T13:32:20;14.53;;;11.17;;
16878;SDS011;8556;52.218;9.884;2023-03-20T13:34:56;14.20;;;10.80;;
16878;SDS011;8556;52.218;9.884;2023-03-20T13:37:31;13.07;;;10.90;;
16878;SDS011;8556;52.218;9.884;2023-03-20T13:40:04;12.87;;;10.57;;
16878;SDS011;8556;52.218;9.884;2023-03-20T13:42:40;12.70;;;10.30;;
16878;SDS011;8556;52.218;9.884;2023-03-20T13:45:18;12.60;;;10.50;;
16878;SDS011;8556;52.218;9.884;2023-03-20T13:47:51;12.10;;;10.80;;
16878;SDS011;8556;52.218;9.884;2023-03-20T13:50:24;13.23;;;10.37;;
16878;SDS011;8556;52.218;9.884;2023-03-20T13:52:59;11.93;;;9.93;;
16878;SDS011;8556;52.218;9.884;2023-03-20T13:55:32;13.50;;;10.60;;
16878;SDS011;8556;52.218;9.884;2023-03-20T13:58:10;13.90;;;10.23;;
16878;SDS011;8556;52.218;9.884;2023-03-20T14:00:50;14.30;;;10.63;;
16878;SDS011;8556;52.218;9.884;2023-03-20T14:03:23;12.13;;;10.30;;
16878;SDS011;8556;52.218;9.884;2023-03-20T14:05:52;14.03;;;10.80;;
16878;SDS011;8556;52.218;9.884;2023-03-20T14:08:28;15.37;;;11.10;;
16878;SDS011;8556;52.218;9.884;2023-03-20T14:11:04;14.67;;;11.00;;
16878;SDS011;8556;52.218;9.884;2023-03-20T14:13:41;15.27;;;11.17;;
16878;SDS011;8556;52.218;9.884;2023-03-20T14:16:13;14.53;;;11.63;;
16878;SDS011;8556;52.218;9.884;2023-03-20T14:18:44;15.20;;;11.40;;
16878;SDS011;8556;52.218;9.884;2023-03-20T14:21:14;15.67;;;11.80;;
16878;SDS011;8556;52.218;9.884;2023-03-20T14:23:46;15.03;;;11.20;;
16878;SDS011;8556;52.218;9.884;2023-03-20T14:26:18;16.80;;;12.37;;
16878;SDS011;8556;52.218;9.884;2023-03-20T14:28:55;16.10;;;11.87;;
16878;SDS011;8556;52.218;9.884;2023-03-20T14:31:30;16.07;;;11.43;;
16878;SDS011;8556;52.218;9.884;2023-03-20T14:34:13;14.60;;;11.07;;
16878;SDS011;8556;52.218;9.884;2023-03-20T14:36:49;17.13;;;11.10;;
16878;SDS011;8556;52.218;9.884;2023-03-20T14:39:18;16.73;;;10.83;;
16878;SDS011;8556;52.218;9.884;2023-03-20T14:41:56;18.27;;;12.50;;
16878;SDS011;8556;52.218;9.884;2023-03-20T14:44:35;16.77;;;12.53;;
16878;SDS011;8556;52.218;9.884;2023-03-20T14:47:19;17.63;;;13.30;;
16878;SDS011;8556;52.218;9.884;2023-03-20T14:49:52;17.80;;;12.63;;
16878;SDS011;8556;52.218;9.884;2023-03-20T14:52:28;17.20;;;12.13;;
16878;SDS011;8556;52.218;9.884;2023-03-20T14:55:13;16.40;;;12.00;;
16878;SDS011;8556;52.218;9.884;2023-03-20T14:57:55;15.43;;;11.47;;
16878;SDS011;8556;52.218;9.884;2023-03-20T15:00:24;16.80;;;12.73;;
16878;SDS011;8556;52.218;9.884;2023-03-20T15:02:57;14.83;;;11.57;;
16878;SDS011;8556;52.218;9.884;2023-03-20T15:05:31;17.40;;;11.60;;
16878;SDS011;8556;52.218;9.884;2023-03-20T15:08:01;16.13;;;11.67;;